sensor_id;sensor_type;location;lat;lon;timestamp;temperature;humidity
49679;DHT22;35570;48.218;16.326;2023-04-12T00:01:31;8.00;94.20
49679;DHT22;35570;48.218;16.326;2023-04-12T00:03:56;8.00;93.70
49679;DHT22;35570;48.218;16.326;2023-04-12T00:06:23;8.00;94.30
49679;DHT22;35570;48.218;16.326;2023-04-12T00:08:50;7.90;94.40
49679;DHT22;35570;48.218;16.326;2023-04-12T00:11:16;7.90;94.80
49679;DHT22;35570;48.218;16.326;2023-04-12T00:13:41;7.90;94.70
49679;DHT22;35570;48.218;16.326;2023-04-12T00:16:08;7.90;94.90
49679;DHT22;35570;48.218;16.326;2023-04-12T00:18:34;7.80;95.80
49679;DHT22;35570;48.218;16.326;2023-04-12T00:20:59;7.80;95.20
49679;DHT22;35570;48.218;16.326;2023-04-12T00:23:25;7.90;95.80
49679;DHT22;35570;48.218;16.326;2023-04-12T00:25:51;7.80;95.00
49679;DHT22;35570;48.218;16.326;2023-04-12T00:28:16;7.80;95.40
49679;DHT22;35570;48.218;16.326;2023-04-12T00:30:42;7.80;95.70
49679;DHT22;35570;48.218;16.326;2023-04-12T00:33:08;7.80;95.70
49679;DHT22;35570;48.218;16.326;2023-04-12T00:35:33;7.70;95.10
49679;DHT22;35570;48.218;16.326;2023-04-12T00:37:59;7.80;95.60
49679;DHT22;35570;48.218;16.326;2023-04-12T00:40:27;7.80;95.00
49679;DHT22;35570;48.218;16.326;2023-04-12T00:42:52;7.80;96.00
49679;DHT22;35570;48.218;16.326;2023-04-12T00:45:18;7.80;95.60
49679;DHT22;35570;48.218;16.326;2023-04-12T00:47:45;7.80;95.00
49679;DHT22;35570;48.218;16.326;2023-04-12T00:50:11;7.80;95.30
49679;DHT22;35570;48.218;16.326;2023-04-12T00:52:38;7.70;95.00
49679;DHT22;35570;48.218;16.326;2023-04-12T00:55:04;7.70;95.30
49679;DHT22;35570;48.218;16.326;2023-04-12T00:57:36;7.70;95.70
49679;DHT22;35570;48.218;16.326;2023-04-12T01:00:07;7.70;96.20
49679;DHT22;35570;48.218;16.326;2023-04-12T01:02:42;7.60;95.90
49679;DHT22;35570;48.218;16.326;2023-04-12T01:05:13;7.60;96.00
49679;DHT22;35570;48.218;16.326;2023-04-12T01:10:48;7.60;96.60
49679;DHT22;35570;48.218;16.326;2023-04-12T01:16:08;7.60;97.20
49679;DHT22;35570;48.218;16.326;2023-04-12T01:18:39;7.50;96.90
49679;DHT22;35570;48.218;16.326;2023-04-12T01:21:13;7.50;97.40
49679;DHT22;35570;48.218;16.326;2023-04-12T01:26:45;7.40;97.30
49679;DHT22;35570;48.218;16.326;2023-04-12T01:29:13;7.40;97.20
49679;DHT22;35570;48.218;16.326;2023-04-12T01:31:49;7.30;97.50
49679;DHT22;35570;48.218;16.326;2023-04-12T01:34:15;7.40;97.10
49679;DHT22;35570;48.218;16.326;2023-04-12T01:36:43;7.30;97.10
49679;DHT22;35570;48.218;16.326;2023-04-12T01:39:11;7.30;97.10
49679;DHT22;35570;48.218;16.326;2023-04-12T01:41:40;7.30;97.20
49679;DHT22;35570;48.218;16.326;2023-04-12T01:44:12;7.20;96.90
49679;DHT22;35570;48.218;16.326;2023-04-12T01:46:39;7.20;97.00
49679;DHT22;35570;48.218;16.326;2023-04-12T01:49:04;7.20;96.80
49679;DHT22;35570;48.218;16.326;2023-04-12T01:51:49;7.20;96.90
49679;DHT22;35570;48.218;16.326;2023-04-12T01:54:25;7.10;96.90
49679;DHT22;35570;48.218;16.326;2023-04-12T01:57:02;7.20;97.00
49679;DHT22;35570;48.218;16.326;2023-04-12T01:59:31;7.10;97.10
49679;DHT22;35570;48.218;16.326;2023-04-12T02:01:59;7.10;97.30
49679;DHT22;35570;48.218;16.326;2023-04-12T02:04:25;7.10;97.60
49679;DHT22;35570;48.218;16.326;2023-04-12T02:06:52;7.10;97.80
49679;DHT22;35570;48.218;16.326;2023-04-12T02:09:18;7.10;97.50
49679;DHT22;35570;48.218;16.326;2023-04-12T02:11:48;7.10;97.70
49679;DHT22;35570;48.218;16.326;2023-04-12T02:14:14;7.10;97.80
49679;DHT22;35570;48.218;16.326;2023-04-12T02:16:40;7.00;98.00
49679;DHT22;35570;48.218;16.326;2023-04-12T02:19:09;7.00;98.40
49679;DHT22;35570;48.218;16.326;2023-04-12T02:21:43;7.00;98.90
49679;DHT22;35570;48.218;16.326;2023-04-12T02:24:09;6.90;99.00
49679;DHT22;35570;48.218;16.326;2023-04-12T02:26:35;6.90;98.80
49679;DHT22;35570;48.218;16.326;2023-04-12T02:29:02;6.90;99.10
49679;DHT22;35570;48.218;16.326;2023-04-12T02:31:27;6.90;98.90
49679;DHT22;35570;48.218;16.326;2023-04-12T02:33:55;6.90;98.80
49679;DHT22;35570;48.218;16.326;2023-04-12T02:36:20;6.90;99.00
49679;DHT22;35570;48.218;16.326;2023-04-12T02:38:46;6.90;99.30
49679;DHT22;35570;48.218;16.326;2023-04-12T02:41:19;6.90;99.10
49679;DHT22;35570;48.218;16.326;2023-04-12T02:43:45;6.80;99.40
49679;DHT22;35570;48.218;16.326;2023-04-12T02:46:18;6.80;99.10
49679;DHT22;35570;48.218;16.326;2023-04-12T02:48:46;6.80;99.10
49679;DHT22;35570;48.218;16.326;2023-04-12T02:51:12;6.80;99.60
49679;DHT22;35570;48.218;16.326;2023-04-12T02:53:37;6.80;99.40
49679;DHT22;35570;48.218;16.326;2023-04-12T02:56:04;6.80;99.40
49679;DHT22;35570;48.218;16.326;2023-04-12T02:58:30;6.70;99.30
49679;DHT22;35570;48.218;16.326;2023-04-12T03:00:58;6.70;99.30
49679;DHT22;35570;48.218;16.326;2023-04-12T03:03:25;6.70;99.20
49679;DHT22;35570;48.218;16.326;2023-04-12T03:05:53;6.70;99.10
49679;DHT22;35570;48.218;16.326;2023-04-12T03:08:20;6.70;99.50
49679;DHT22;35570;48.218;16.326;2023-04-12T03:10:46;6.70;99.50
49679;DHT22;35570;48.218;16.326;2023-04-12T03:13:12;6.70;98.90
49679;DHT22;35570;48.218;16.326;2023-04-12T03:15:37;6.70;98.70
49679;DHT22;35570;48.218;16.326;2023-04-12T03:18:03;6.70;98.70
49679;DHT22;35570;48.218;16.326;2023-04-12T03:20:29;6.70;98.80
49679;DHT22;35570;48.218;16.326;2023-04-12T03:22:55;6.80;98.60
49679;DHT22;35570;48.218;16.326;2023-04-12T03:25:20;6.70;98.20
49679;DHT22;35570;48.218;16.326;2023-04-12T03:27:46;6.70;98.30
49679;DHT22;35570;48.218;16.326;2023-04-12T03:30:12;6.70;98.80
49679;DHT22;35570;48.218;16.326;2023-04-12T03:32:41;6.70;98.70
49679;DHT22;35570;48.218;16.326;2023-04-12T03:35:10;6.70;98.50
49679;DHT22;35570;48.218;16.326;2023-04-12T03:37:39;6.70;98.30
49679;DHT22;35570;48.218;16.326;2023-04-12T03:40:06;6.70;99.20
49679;DHT22;35570;48.218;16.326;2023-04-12T03:42:31;6.60;98.80
49679;DHT22;35570;48.218;16.326;2023-04-12T03:44:57;6.60;99.10
49679;DHT22;35570;48.218;16.326;2023-04-12T03:47:23;6.60;98.70
49679;DHT22;35570;48.218;16.326;2023-04-12T03:49:48;6.60;98.70
49679;DHT22;35570;48.218;16.326;2023-04-12T03:52:14;6.60;98.30
49679;DHT22;35570;48.218;16.326;2023-04-12T03:54:40;6.60;98.90
49679;DHT22;35570;48.218;16.326;2023-04-12T03:57:06;6.60;99.00
49679;DHT22;35570;48.218;16.326;2023-04-12T03:59:31;6.60;98.90
49679;DHT22;35570;48.218;16.326;2023-04-12T04:01:58;6.60;98.70
49679;DHT22;35570;48.218;16.326;2023-04-12T04:04:26;6.60;98.20
49679;DHT22;35570;48.218;16.326;2023-04-12T04:06:51;6.60;98.10
49679;DHT22;35570;48.218;16.326;2023-04-12T04:09:17;6.60;98.30
49679;DHT22;35570;48.218;16.326;2023-04-12T04:11:43;6.50;98.20
49679;DHT22;35570;48.218;16.326;2023-04-12T04:14:09;6.50;98.40
49679;DHT22;35570;48.218;16.326;2023-04-12T04:16:34;6.50;98.40
49679;DHT22;35570;48.218;16.326;2023-04-12T04:19:00;6.50;98.20
49679;DHT22;35570;48.218;16.326;2023-04-12T04:21:26;6.50;98.30
49679;DHT22;35570;48.218;16.326;2023-04-12T04:23:55;6.40;98.20
49679;DHT22;35570;48.218;16.326;2023-04-12T04:26:22;6.50;98.10
49679;DHT22;35570;48.218;16.326;2023-04-12T04:28:55;6.40;98.40
49679;DHT22;35570;48.218;16.326;2023-04-12T04:31:21;6.40;98.60
49679;DHT22;35570;48.218;16.326;2023-04-12T04:33:50;6.40;98.20
49679;DHT22;35570;48.218;16.326;2023-04-12T04:36:16;6.40;97.90
49679;DHT22;35570;48.218;16.326;2023-04-12T04:38:42;6.40;98.10
49679;DHT22;35570;48.218;16.326;2023-04-12T04:41:08;6.30;98.10
49679;DHT22;35570;48.218;16.326;2023-04-12T04:43:34;6.40;98.40
49679;DHT22;35570;48.218;16.326;2023-04-12T04:46:04;6.40;97.70
49679;DHT22;35570;48.218;16.326;2023-04-12T04:48:30;6.40;97.80
49679;DHT22;35570;48.218;16.326;2023-04-12T04:50:55;6.40;97.50
49679;DHT22;35570;48.218;16.326;2023-04-12T04:53:21;6.50;97.50
49679;DHT22;35570;48.218;16.326;2023-04-12T04:55:47;6.50;98.00
49679;DHT22;35570;48.218;16.326;2023-04-12T04:58:14;6.50;97.10
49679;DHT22;35570;48.218;16.326;2023-04-12T05:00:40;6.60;97.00
49679;DHT22;35570;48.218;16.326;2023-04-12T05:03:09;6.60;97.00
49679;DHT22;35570;48.218;16.326;2023-04-12T05:05:35;6.60;96.50
49679;DHT22;35570;48.218;16.326;2023-04-12T05:08:01;6.70;96.70
49679;DHT22;35570;48.218;16.326;2023-04-12T05:10:26;6.70;96.70
49679;DHT22;35570;48.218;16.326;2023-04-12T05:12:52;6.80;96.10
49679;DHT22;35570;48.218;16.326;2023-04-12T05:15:18;6.90;96.10
49679;DHT22;35570;48.218;16.326;2023-04-12T05:17:44;6.90;94.90
49679;DHT22;35570;48.218;16.326;2023-04-12T05:20:10;7.00;95.60
49679;DHT22;35570;48.218;16.326;2023-04-12T05:22:36;7.00;95.30
49679;DHT22;35570;48.218;16.326;2023-04-12T05:25:01;7.10;94.70
49679;DHT22;35570;48.218;16.326;2023-04-12T05:27:28;7.10;94.90
49679;DHT22;35570;48.218;16.326;2023-04-12T05:29:57;7.20;94.90
49679;DHT22;35570;48.218;16.326;2023-04-12T05:32:24;7.30;94.20
49679;DHT22;35570;48.218;16.326;2023-04-12T05:34:49;7.30;94.20
49679;DHT22;35570;48.218;16.326;2023-04-12T05:37:15;7.40;93.80
49679;DHT22;35570;48.218;16.326;2023-04-12T05:39:41;7.50;92.40
49679;DHT22;35570;48.218;16.326;2023-04-12T05:42:06;7.50;92.40
49679;DHT22;35570;48.218;16.326;2023-04-12T05:44:34;7.60;92.00
49679;DHT22;35570;48.218;16.326;2023-04-12T05:47:02;7.60;91.40
49679;DHT22;35570;48.218;16.326;2023-04-12T05:49:28;7.70;90.20
49679;DHT22;35570;48.218;16.326;2023-04-12T05:51:55;7.80;88.20
49679;DHT22;35570;48.218;16.326;2023-04-12T05:54:21;7.80;85.60
49679;DHT22;35570;48.218;16.326;2023-04-12T05:56:47;7.90;84.20
49679;DHT22;35570;48.218;16.326;2023-04-12T05:59:12;7.90;84.80
49679;DHT22;35570;48.218;16.326;2023-04-12T06:01:38;8.00;84.20
49679;DHT22;35570;48.218;16.326;2023-04-12T06:04:07;8.00;81.70
49679;DHT22;35570;48.218;16.326;2023-04-12T06:06:32;8.00;82.30
49679;DHT22;35570;48.218;16.326;2023-04-12T06:08:58;8.10;85.50
49679;DHT22;35570;48.218;16.326;2023-04-12T06:11:27;8.10;86.30
49679;DHT22;35570;48.218;16.326;2023-04-12T06:13:53;8.20;87.60
49679;DHT22;35570;48.218;16.326;2023-04-12T06:16:19;8.30;89.10
49679;DHT22;35570;48.218;16.326;2023-04-12T06:18:45;8.40;87.50
49679;DHT22;35570;48.218;16.326;2023-04-12T06:21:11;8.50;85.30
49679;DHT22;35570;48.218;16.326;2023-04-12T06:23:37;8.60;87.80
49679;DHT22;35570;48.218;16.326;2023-04-12T06:26:03;8.70;82.50
49679;DHT22;35570;48.218;16.326;2023-04-12T06:28:28;8.80;80.50
49679;DHT22;35570;48.218;16.326;2023-04-12T06:30:54;8.90;76.60
49679;DHT22;35570;48.218;16.326;2023-04-12T06:33:20;9.00;80.60
49679;DHT22;35570;48.218;16.326;2023-04-12T06:35:49;9.20;78.10
49679;DHT22;35570;48.218;16.326;2023-04-12T06:38:15;9.30;80.80
49679;DHT22;35570;48.218;16.326;2023-04-12T06:40:41;9.40;80.00
49679;DHT22;35570;48.218;16.326;2023-04-12T06:43:07;9.50;78.00
49679;DHT22;35570;48.218;16.326;2023-04-12T06:45:32;9.60;78.40
49679;DHT22;35570;48.218;16.326;2023-04-12T06:47:58;9.70;73.10
49679;DHT22;35570;48.218;16.326;2023-04-12T06:50:25;9.70;74.50
49679;DHT22;35570;48.218;16.326;2023-04-12T06:52:51;9.80;74.10
49679;DHT22;35570;48.218;16.326;2023-04-12T06:55:16;9.80;73.90
49679;DHT22;35570;48.218;16.326;2023-04-12T06:57:42;9.90;74.20
49679;DHT22;35570;48.218;16.326;2023-04-12T07:00:09;10.10;73.50
49679;DHT22;35570;48.218;16.326;2023-04-12T07:02:35;10.20;73.30
49679;DHT22;35570;48.218;16.326;2023-04-12T07:05:01;10.30;74.40
49679;DHT22;35570;48.218;16.326;2023-04-12T07:07:26;10.40;73.30
49679;DHT22;35570;48.218;16.326;2023-04-12T07:09:52;10.50;73.90
49679;DHT22;35570;48.218;16.326;2023-04-12T07:12:18;10.70;69.40
49679;DHT22;35570;48.218;16.326;2023-04-12T07:14:43;10.70;70.90
49679;DHT22;35570;48.218;16.326;2023-04-12T07:17:09;10.90;70.90
49679;DHT22;35570;48.218;16.326;2023-04-12T07:19:35;11.10;71.90
49679;DHT22;35570;48.218;16.326;2023-04-12T07:22:01;11.20;70.30
49679;DHT22;35570;48.218;16.326;2023-04-12T07:24:26;11.30;70.80
49679;DHT22;35570;48.218;16.326;2023-04-12T07:26:52;11.40;69.80
49679;DHT22;35570;48.218;16.326;2023-04-12T07:29:21;11.60;67.30
49679;DHT22;35570;48.218;16.326;2023-04-12T07:31:47;11.60;66.40
49679;DHT22;35570;48.218;16.326;2023-04-12T07:34:13;11.80;66.30
49679;DHT22;35570;48.218;16.326;2023-04-12T07:36:38;11.80;65.60
49679;DHT22;35570;48.218;16.326;2023-04-12T07:39:04;11.90;66.50
49679;DHT22;35570;48.218;16.326;2023-04-12T07:41:30;12.00;65.50
49679;DHT22;35570;48.218;16.326;2023-04-12T07:43:55;12.20;66.40
49679;DHT22;35570;48.218;16.326;2023-04-12T07:46:21;12.40;65.30
49679;DHT22;35570;48.218;16.326;2023-04-12T07:48:47;12.50;63.90
49679;DHT22;35570;48.218;16.326;2023-04-12T07:51:12;12.60;62.20
49679;DHT22;35570;48.218;16.326;2023-04-12T07:53:38;12.80;63.10
49679;DHT22;35570;48.218;16.326;2023-04-12T07:56:06;12.80;59.40
49679;DHT22;35570;48.218;16.326;2023-04-12T07:58:32;12.70;55.30
49679;DHT22;35570;48.218;16.326;2023-04-12T08:00:59;12.70;60.10
49679;DHT22;35570;48.218;16.326;2023-04-12T08:03:24;12.80;60.00
49679;DHT22;35570;48.218;16.326;2023-04-12T08:05:51;12.80;60.20
49679;DHT22;35570;48.218;16.326;2023-04-12T08:08:20;13.00;60.90
49679;DHT22;35570;48.218;16.326;2023-04-12T08:10:47;13.20;54.20
49679;DHT22;35570;48.218;16.326;2023-04-12T08:13:13;13.10;56.10
49679;DHT22;35570;48.218;16.326;2023-04-12T08:15:38;13.10;57.80
49679;DHT22;35570;48.218;16.326;2023-04-12T08:18:04;13.10;57.00
49679;DHT22;35570;48.218;16.326;2023-04-12T08:20:30;13.00;55.60
49679;DHT22;35570;48.218;16.326;2023-04-12T08:22:56;13.10;57.20
49679;DHT22;35570;48.218;16.326;2023-04-12T08:25:22;13.10;52.40
49679;DHT22;35570;48.218;16.326;2023-04-12T08:27:49;13.10;53.00
49679;DHT22;35570;48.218;16.326;2023-04-12T08:30:16;13.30;58.00
49679;DHT22;35570;48.218;16.326;2023-04-12T08:32:42;13.60;57.60
49679;DHT22;35570;48.218;16.326;2023-04-12T08:35:08;14.10;54.90
49679;DHT22;35570;48.218;16.326;2023-04-12T08:37:34;14.50;55.90
49679;DHT22;35570;48.218;16.326;2023-04-12T08:40:03;14.80;53.80
49679;DHT22;35570;48.218;16.326;2023-04-12T08:42:33;15.00;51.60
49679;DHT22;35570;48.218;16.326;2023-04-12T08:45:04;15.10;53.90
49679;DHT22;35570;48.218;16.326;2023-04-12T08:47:36;15.10;50.00
49679;DHT22;35570;48.218;16.326;2023-04-12T08:50:02;15.00;50.90
49679;DHT22;35570;48.218;16.326;2023-04-12T08:52:32;15.00;52.20
49679;DHT22;35570;48.218;16.326;2023-04-12T08:55:04;15.30;52.30
49679;DHT22;35570;48.218;16.326;2023-04-12T08:57:30;15.60;53.10
49679;DHT22;35570;48.218;16.326;2023-04-12T09:00:00;15.70;47.40
49679;DHT22;35570;48.218;16.326;2023-04-12T09:02:26;15.80;50.50
49679;DHT22;35570;48.218;16.326;2023-04-12T09:04:53;16.10;50.40
49679;DHT22;35570;48.218;16.326;2023-04-12T09:07:19;16.50;48.10
49679;DHT22;35570;48.218;16.326;2023-04-12T09:09:48;16.70;45.30
49679;DHT22;35570;48.218;16.326;2023-04-12T09:12:16;16.80;44.60
49679;DHT22;35570;48.218;16.326;2023-04-12T09:14:42;16.80;47.50
49679;DHT22;35570;48.218;16.326;2023-04-12T09:17:26;17.10;50.40
49679;DHT22;35570;48.218;16.326;2023-04-12T09:19:52;17.50;48.10
49679;DHT22;35570;48.218;16.326;2023-04-12T09:22:32;17.90;48.10
49679;DHT22;35570;48.218;16.326;2023-04-12T09:24:58;18.30;47.50
49679;DHT22;35570;48.218;16.326;2023-04-12T09:27:24;18.50;40.60
49679;DHT22;35570;48.218;16.326;2023-04-12T09:30:05;18.50;43.90
49679;DHT22;35570;48.218;16.326;2023-04-12T09:32:31;18.70;42.90
49679;DHT22;35570;48.218;16.326;2023-04-12T09:34:57;19.10;46.60
49679;DHT22;35570;48.218;16.326;2023-04-12T09:37:25;19.40;43.40
49679;DHT22;35570;48.218;16.326;2023-04-12T09:40:11;19.30;40.20
49679;DHT22;35570;48.218;16.326;2023-04-12T09:42:57;18.80;41.10
49679;DHT22;35570;48.218;16.326;2023-04-12T09:45:24;18.90;45.10
49679;DHT22;35570;48.218;16.326;2023-04-12T09:47:51;18.90;42.20
49679;DHT22;35570;48.218;16.326;2023-04-12T09:52:47;18.80;41.60
49679;DHT22;35570;48.218;16.326;2023-04-12T09:55:13;19.10;43.20
49679;DHT22;35570;48.218;16.326;2023-04-12T09:57:41;18.90;38.70
49679;DHT22;35570;48.218;16.326;2023-04-12T10:00:09;18.40;42.30
49679;DHT22;35570;48.218;16.326;2023-04-12T10:02:49;17.90;39.30
49679;DHT22;35570;48.218;16.326;2023-04-12T10:05:16;17.30;40.80
49679;DHT22;35570;48.218;16.326;2023-04-12T10:07:43;16.60;40.90
49679;DHT22;35570;48.218;16.326;2023-04-12T10:10:14;16.30;43.50
49679;DHT22;35570;48.218;16.326;2023-04-12T10:12:42;16.10;42.80
49679;DHT22;35570;48.218;16.326;2023-04-12T10:15:09;15.90;44.80
49679;DHT22;35570;48.218;16.326;2023-04-12T10:17:50;15.80;46.20
49679;DHT22;35570;48.218;16.326;2023-04-12T10:20:17;15.70;42.50
49679;DHT22;35570;48.218;16.326;2023-04-12T10:22:47;15.70;45.60
49679;DHT22;35570;48.218;16.326;2023-04-12T10:25:32;15.80;45.00
49679;DHT22;35570;48.218;16.326;2023-04-12T10:28:17;16.00;45.50
49679;DHT22;35570;48.218;16.326;2023-04-12T10:30:43;15.90;44.60
49679;DHT22;35570;48.218;16.326;2023-04-12T10:33:09;15.60;44.60
49679;DHT22;35570;48.218;16.326;2023-04-12T10:36:09;15.50;43.40
49679;DHT22;35570;48.218;16.326;2023-04-12T10:38:45;15.60;43.20
49679;DHT22;35570;48.218;16.326;2023-04-12T10:41:19;15.60;42.60
49679;DHT22;35570;48.218;16.326;2023-04-12T10:43:49;15.50;43.30
49679;DHT22;35570;48.218;16.326;2023-04-12T10:49:13;15.90;44.70
49679;DHT22;35570;48.218;16.326;2023-04-12T10:51:40;16.10;44.60
49679;DHT22;35570;48.218;16.326;2023-04-12T10:56:54;16.60;43.30
49679;DHT22;35570;48.218;16.326;2023-04-12T10:59:19;17.00;47.50
49679;DHT22;35570;48.218;16.326;2023-04-12T11:02:07;17.30;43.90
49679;DHT22;35570;48.218;16.326;2023-04-12T11:04:34;17.30;41.70
49679;DHT22;35570;48.218;16.326;2023-04-12T11:07:01;17.50;44.70
49679;DHT22;35570;48.218;16.326;2023-04-12T11:09:43;17.60;41.60
49679;DHT22;35570;48.218;16.326;2023-04-12T11:19:43;19.40;43.80
49679;DHT22;35570;48.218;16.326;2023-04-12T11:22:11;19.90;37.30
49679;DHT22;35570;48.218;16.326;2023-04-12T11:27:04;21.00;37.60
49679;DHT22;35570;48.218;16.326;2023-04-12T11:29:30;21.40;39.60
49679;DHT22;35570;48.218;16.326;2023-04-12T11:31:57;21.30;34.60
49679;DHT22;35570;48.218;16.326;2023-04-12T11:34:23;21.30;35.60
49679;DHT22;35570;48.218;16.326;2023-04-12T11:36:53;21.10;36.20
49679;DHT22;35570;48.218;16.326;2023-04-12T11:39:20;21.20;34.90
49679;DHT22;35570;48.218;16.326;2023-04-12T11:41:47;21.10;36.10
49679;DHT22;35570;48.218;16.326;2023-04-12T11:44:13;21.70;38.60
49679;DHT22;35570;48.218;16.326;2023-04-12T11:46:44;22.90;36.40
49679;DHT22;35570;48.218;16.326;2023-04-12T11:49:13;23.00;33.20
49679;DHT22;35570;48.218;16.326;2023-04-12T11:51:40;23.60;33.80
49679;DHT22;35570;48.218;16.326;2023-04-12T11:54:05;24.00;31.20
49679;DHT22;35570;48.218;16.326;2023-04-12T11:56:31;23.60;32.60
49679;DHT22;35570;48.218;16.326;2023-04-12T11:58:57;23.90;32.90
49679;DHT22;35570;48.218;16.326;2023-04-12T12:01:23;24.10;31.10
49679;DHT22;35570;48.218;16.326;2023-04-12T12:03:49;24.40;32.00
49679;DHT22;35570;48.218;16.326;2023-04-12T12:06:15;25.30;31.30
49679;DHT22;35570;48.218;16.326;2023-04-12T12:08:41;26.20;30.00
49679;DHT22;35570;48.218;16.326;2023-04-12T12:11:07;26.50;30.40
49679;DHT22;35570;48.218;16.326;2023-04-12T12:13:45;26.90;29.90
49679;DHT22;35570;48.218;16.326;2023-04-12T12:16:11;26.70;30.10
49679;DHT22;35570;48.218;16.326;2023-04-12T12:18:44;26.20;29.90
49679;DHT22;35570;48.218;16.326;2023-04-12T12:21:13;25.80;29.10
49679;DHT22;35570;48.218;16.326;2023-04-12T12:23:42;25.30;30.50
49679;DHT22;35570;48.218;16.326;2023-04-12T12:26:08;24.90;29.90
49679;DHT22;35570;48.218;16.326;2023-04-12T12:28:37;24.80;30.30
49679;DHT22;35570;48.218;16.326;2023-04-12T12:31:09;24.80;30.00
49679;DHT22;35570;48.218;16.326;2023-04-12T12:33:41;24.70;30.40
49679;DHT22;35570;48.218;16.326;2023-04-12T12:36:09;25.50;32.90
49679;DHT22;35570;48.218;16.326;2023-04-12T12:38:38;27.00;30.60
49679;DHT22;35570;48.218;16.326;2023-04-12T12:43:51;26.20;30.20
49679;DHT22;35570;48.218;16.326;2023-04-12T12:46:18;24.80;30.00
49679;DHT22;35570;48.218;16.326;2023-04-12T12:48:46;23.40;31.50
49679;DHT22;35570;48.218;16.326;2023-04-12T12:51:13;22.00;32.40
49679;DHT22;35570;48.218;16.326;2023-04-12T12:53:42;21.00;33.90
49679;DHT22;35570;48.218;16.326;2023-04-12T12:56:08;20.30;35.30
49679;DHT22;35570;48.218;16.326;2023-04-12T12:58:35;19.90;35.80
49679;DHT22;35570;48.218;16.326;2023-04-12T13:01:02;19.50;37.30
49679;DHT22;35570;48.218;16.326;2023-04-12T13:03:31;19.20;36.70
49679;DHT22;35570;48.218;16.326;2023-04-12T13:05:57;18.80;36.90
49679;DHT22;35570;48.218;16.326;2023-04-12T13:08:24;18.40;37.90
49679;DHT22;35570;48.218;16.326;2023-04-12T13:10:50;18.00;38.50
49679;DHT22;35570;48.218;16.326;2023-04-12T13:13:16;17.80;40.20
49679;DHT22;35570;48.218;16.326;2023-04-12T13:15:42;17.50;39.20
49679;DHT22;35570;48.218;16.326;2023-04-12T13:18:08;17.20;40.20
49679;DHT22;35570;48.218;16.326;2023-04-12T13:20:34;17.00;39.70
49679;DHT22;35570;48.218;16.326;2023-04-12T13:22:59;16.70;40.10
49679;DHT22;35570;48.218;16.326;2023-04-12T13:25:25;16.60;41.70
49679;DHT22;35570;48.218;16.326;2023-04-12T13:27:51;16.70;40.40
49679;DHT22;35570;48.218;16.326;2023-04-12T13:30:17;16.50;40.60
49679;DHT22;35570;48.218;16.326;2023-04-12T13:32:44;16.40;40.30
49679;DHT22;35570;48.218;16.326;2023-04-12T13:35:10;16.30;41.40
49679;DHT22;35570;48.218;16.326;2023-04-12T13:37:36;16.30;41.80
49679;DHT22;35570;48.218;16.326;2023-04-12T13:40:02;16.20;41.40
49679;DHT22;35570;48.218;16.326;2023-04-12T13:42:28;16.10;42.20
49679;DHT22;35570;48.218;16.326;2023-04-12T13:44:54;16.10;41.80
49679;DHT22;35570;48.218;16.326;2023-04-12T13:47:19;16.10;41.70
49679;DHT22;35570;48.218;16.326;2023-04-12T13:49:46;15.90;41.90
49679;DHT22;35570;48.218;16.326;2023-04-12T13:52:12;15.90;43.10
49679;DHT22;35570;48.218;16.326;2023-04-12T13:54:37;15.80;42.20
49679;DHT22;35570;48.218;16.326;2023-04-12T13:57:04;15.80;42.10
49679;DHT22;35570;48.218;16.326;2023-04-12T13:59:30;15.70;42.40
49679;DHT22;35570;48.218;16.326;2023-04-12T14:01:55;15.60;43.40
49679;DHT22;35570;48.218;16.326;2023-04-12T14:04:21;15.60;43.60
49679;DHT22;35570;48.218;16.326;2023-04-12T14:06:47;15.50;43.60
49679;DHT22;35570;48.218;16.326;2023-04-12T14:09:32;15.50;43.40
49679;DHT22;35570;48.218;16.326;2023-04-12T14:11:59;15.50;43.20
49679;DHT22;35570;48.218;16.326;2023-04-12T14:14:26;15.30;43.90
49679;DHT22;35570;48.218;16.326;2023-04-12T14:16:53;15.30;44.10
49679;DHT22;35570;48.218;16.326;2023-04-12T14:19:22;15.30;44.00
49679;DHT22;35570;48.218;16.326;2023-04-12T14:21:48;15.30;44.10
49679;DHT22;35570;48.218;16.326;2023-04-12T14:24:15;15.40;44.40
49679;DHT22;35570;48.218;16.326;2023-04-12T14:26:41;15.40;43.70
49679;DHT22;35570;48.218;16.326;2023-04-12T14:29:07;15.50;44.10
49679;DHT22;35570;48.218;16.326;2023-04-12T14:31:36;15.40;43.60
49679;DHT22;35570;48.218;16.326;2023-04-12T14:34:03;15.60;43.50
49679;DHT22;35570;48.218;16.326;2023-04-12T14:36:29;15.70;43.70
49679;DHT22;35570;48.218;16.326;2023-04-12T14:38:56;15.80;43.50
49679;DHT22;35570;48.218;16.326;2023-04-12T14:41:22;15.90;44.10
49679;DHT22;35570;48.218;16.326;2023-04-12T14:43:48;15.90;44.20
49679;DHT22;35570;48.218;16.326;2023-04-12T14:46:15;15.80;43.80
49679;DHT22;35570;48.218;16.326;2023-04-12T14:48:41;15.80;43.90
49679;DHT22;35570;48.218;16.326;2023-04-12T14:51:07;15.70;44.80
49679;DHT22;35570;48.218;16.326;2023-04-12T14:53:32;15.50;45.90
49679;DHT22;35570;48.218;16.326;2023-04-12T14:55:58;15.50;46.20
49679;DHT22;35570;48.218;16.326;2023-04-12T14:58:30;15.50;46.00
49679;DHT22;35570;48.218;16.326;2023-04-12T15:00:56;15.50;46.30
49679;DHT22;35570;48.218;16.326;2023-04-12T15:03:24;15.50;47.30
49679;DHT22;35570;48.218;16.326;2023-04-12T15:05:51;15.60;46.70
49679;DHT22;35570;48.218;16.326;2023-04-12T15:08:17;15.70;46.40
49679;DHT22;35570;48.218;16.326;2023-04-12T15:10:43;15.80;46.30
49679;DHT22;35570;48.218;16.326;2023-04-12T15:13:09;16.00;45.90
49679;DHT22;35570;48.218;16.326;2023-04-12T15:15:35;16.10;45.10
49679;DHT22;35570;48.218;16.326;2023-04-12T15:18:00;16.20;45.90
49679;DHT22;35570;48.218;16.326;2023-04-12T15:20:27;16.30;45.10
49679;DHT22;35570;48.218;16.326;2023-04-12T15:22:53;16.20;45.00
49679;DHT22;35570;48.218;16.326;2023-04-12T15:25:19;16.30;46.00
49679;DHT22;35570;48.218;16.326;2023-04-12T15:27:46;16.10;44.70
49679;DHT22;35570;48.218;16.326;2023-04-12T15:30:12;16.10;45.00
49679;DHT22;35570;48.218;16.326;2023-04-12T15:32:40;16.20;44.30
49679;DHT22;35570;48.218;16.326;2023-04-12T15:35:06;16.40;44.30
49679;DHT22;35570;48.218;16.326;2023-04-12T15:37:33;16.50;43.60
49679;DHT22;35570;48.218;16.326;2023-04-12T15:40:03;16.30;44.20
49679;DHT22;35570;48.218;16.326;2023-04-12T15:42:40;16.20;44.00
49679;DHT22;35570;48.218;16.326;2023-04-12T15:45:08;16.10;44.20
49679;DHT22;35570;48.218;16.326;2023-04-12T15:47:34;16.00;44.80
49679;DHT22;35570;48.218;16.326;2023-04-12T15:49:59;15.80;45.40
49679;DHT22;35570;48.218;16.326;2023-04-12T15:52:25;15.60;45.10
49679;DHT22;35570;48.218;16.326;2023-04-12T15:54:51;15.40;45.90